Time;durP1;ratioP1;P1;durP2;ratioP2;P2;SDS_P1;SDS_P2;PMS_P1;PMS_P2;Temp;Humidity;BMP_temperature;BMP_pressure;BME280_temperature;BME280_humidity;BME280_pressure;Samples;Min_cycle;Max_cycle;Signal;HPM_P1;HPM_P2
2021/11/27 00:00:34;;;;;;;11.23;3.45;;;16.80;99.90;;;;;;5073587;28;20025;-68
2021/11/27 00:03:02;;;;;;;8.63;2.88;;;16.60;99.90;;;;;;5073892;28;20144;-71
2021/11/27 00:05:30;;;;;;;15.07;3.28;;;16.50;99.90;;;;;;5074582;28;20025;-68
2021/11/27 00:07:57;;;;;;;11.90;3.30;;;16.70;99.90;;;;;;5072167;28;20017;-69
2021/11/27 00:10:27;;;;;;;14.68;4.07;;;17.00;99.90;;;;;;5067953;28;20028;-66
2021/11/27 00:12:55;;;;;;;11.45;3.20;;;17.40;99.90;;;;;;5070425;28;20027;-65
2021/11/27 00:15:25;;;;;;;16.60;3.28;;;17.60;99.90;;;;;;5070681;28;20024;-68
2021/11/27 00:17:53;;;;;;;14.20;3.78;;;17.80;99.90;;;;;;5069795;28;20025;-66
2021/11/27 00:20:23;;;;;;;10.30;2.90;;;17.80;99.90;;;;;;5070028;28;20016;-69
2021/11/27 00:22:51;;;;;;;9.90;3.10;;;17.60;99.90;;;;;;5052600;28;20040;-70
2021/11/27 00:25:18;;;;;;;18.58;3.78;;;17.50;99.90;;;;;;5071413;28;20020;-67
2021/11/27 00:27:46;;;;;;;16.13;3.90;;;17.30;99.90;;;;;;5070467;28;20414;-67
2021/11/27 00:30:19;;;;;;;11.43;3.20;;;17.10;99.90;;;;;;5070064;28;20050;-70
2021/11/27 00:32:47;;;;;;;16.23;4.05;;;17.20;99.90;;;;;;5069379;28;20032;-65
2021/11/27 00:35:14;;;;;;;16.23;3.95;;;17.00;99.90;;;;;;5068549;28;20039;-66
2021/11/27 00:37:42;;;;;;;14.63;4.15;;;16.90;99.90;;;;;;5050884;28;20040;-67
2021/11/27 00:40:11;;;;;;;15.15;3.55;;;16.70;99.90;;;;;;5070704;28;20028;-68
2021/11/27 00:42:38;;;;;;;16.23;3.50;;;16.40;99.90;;;;;;5070368;28;20039;-67
2021/11/27 00:45:11;;;;;;;19.15;4.70;;;16.30;99.90;;;;;;5070458;28;20138;-65
2021/11/27 00:47:44;;;;;;;10.80;4.20;;;16.50;99.90;;;;;;5069064;28;20033;-67
2021/11/27 00:50:13;;;;;;;14.55;3.92;;;16.60;99.90;;;;;;5069397;28;20380;-66
2021/11/27 00:52:40;;;;;;;13.25;3.83;;;16.90;99.90;;;;;;4718464;28;10000777;-66
2021/11/27 00:55:09;;;;;;;16.00;4.20;;;17.00;99.90;;;;;;5069986;28;20031;-65
2021/11/27 00:57:38;;;;;;;11.00;3.00;;;17.10;99.90;;;;;;5066884;28;20033;-66
2021/11/27 01:00:09;;;;;;;15.57;4.85;;;17.10;99.90;;;;;;5070369;28;21349;-68
2021/11/27 01:02:36;;;;;;;11.68;3.30;;;17.20;99.90;;;;;;5051778;28;20032;-67
2021/11/27 01:05:06;;;;;;;12.32;3.30;;;17.40;99.90;;;;;;5070640;28;20032;-66
2021/11/27 01:07:33;;;;;;;15.35;3.28;;;17.40;99.90;;;;;;5051325;28;20065;-70
2021/11/27 01:10:03;;;;;;;15.88;5.55;;;17.10;99.90;;;;;;5071453;28;20024;-70
2021/11/27 01:12:30;;;;;;;13.68;3.78;;;16.90;99.90;;;;;;5070622;28;20028;-69
2021/11/27 01:14:57;;;;;;;13.75;3.65;;;17.00;99.90;;;;;;5068572;28;20084;-70
2021/11/27 01:17:24;;;;;;;14.75;3.33;;;17.20;99.90;;;;;;5067150;28;20072;-66
2021/11/27 01:19:52;;;;;;;13.20;3.15;;;17.30;99.90;;;;;;5067195;28;20354;-66
2021/11/27 01:22:23;;;;;;;12.85;3.03;;;17.30;99.90;;;;;;5067268;28;20035;-69
2021/11/27 01:24:51;;;;;;;15.20;4.70;;;17.10;99.90;;;;;;5067450;28;20054;-69
2021/11/27 01:27:18;;;;;;;21.23;3.35;;;16.80;99.90;;;;;;5066757;28;20290;-66
2021/11/27 01:29:46;;;;;;;15.13;3.95;;;16.70;99.90;;;;;;5067673;28;20103;-66
2021/11/27 01:32:15;;;;;;;17.42;4.03;;;16.90;99.90;;;;;;5066570;28;20031;-69
2021/11/27 01:34:43;;;;;;;14.98;3.25;;;17.20;99.90;;;;;;5067692;28;20017;-68
2021/11/27 01:37:11;;;;;;;11.75;2.78;;;17.50;99.90;;;;;;5066325;28;20048;-70
2021/11/27 01:39:39;;;;;;;9.10;3.33;;;17.70;99.90;;;;;;5066591;28;20410;-66
2021/11/27 01:42:07;;;;;;;12.48;3.60;;;17.60;99.90;;;;;;5066563;28;20029;-68
2021/11/27 01:44:34;;;;;;;11.07;3.35;;;17.40;99.90;;;;;;5065683;28;20114;-66
2021/11/27 01:47:03;;;;;;;12.48;3.05;;;17.20;99.90;;;;;;5066344;28;20031;-70
2021/11/27 01:49:30;;;;;;;12.73;3.30;;;17.30;99.90;;;;;;5066684;28;20033;-70
2021/11/27 01:51:58;;;;;;;11.75;3.08;;;17.20;99.90;;;;;;5068178;28;20025;-69
2021/11/27 01:54:25;;;;;;;15.02;3.33;;;17.10;99.90;;;;;;5067746;28;20032;-69
2021/11/27 01:56:57;;;;;;;10.27;2.25;;;16.90;99.90;;;;;;5068826;28;20009;-72
2021/11/27 01:59:26;;;;;;;9.05;2.43;;;16.80;99.90;;;;;;4367160;28;10021605;-74
2021/11/27 02:01:53;;;;;;;13.27;3.50;;;16.90;99.90;;;;;;5067784;28;20610;-69
2021/11/27 02:04:21;;;;;;;12.88;3.53;;;17.10;99.90;;;;;;5067272;28;20898;-70
2021/11/27 02:06:48;;;;;;;11.70;3.05;;;17.40;99.90;;;;;;5068659;28;20035;-70
2021/11/27 02:09:25;;;;;;;12.68;2.53;;;17.80;99.90;;;;;;5065954;28;20070;-72
2021/11/27 02:11:53;;;;;;;8.82;2.00;;;17.80;99.90;;;;;;5066276;28;20024;-69
2021/11/27 02:14:20;;;;;;;11.52;2.83;;;18.10;99.90;;;;;;5064321;28;20436;-73
2021/11/27 02:16:49;;;;;;;9.73;2.78;;;18.40;99.90;;;;;;5072396;28;20024;-69
2021/11/27 02:19:17;;;;;;;10.68;3.45;;;18.60;99.90;;;;;;5068066;28;20066;-74
2021/11/27 02:21:44;;;;;;;11.05;3.03;;;18.60;99.90;;;;;;5068672;28;20024;-72
2021/11/27 02:24:17;;;;;;;11.10;2.42;;;18.60;99.90;;;;;;5049246;28;20498;-74
2021/11/27 02:26:45;;;;;;;6.95;2.38;;;18.40;99.90;;;;;;5066827;28;20054;-71
2021/11/27 02:29:23;;;;;;;6.13;2.40;;;18.10;99.90;;;;;;5066793;28;20021;-71
2021/11/27 02:31:51;;;;;;;15.32;2.35;;;17.80;99.90;;;;;;5050966;28;20372;-67
2021/11/27 02:34:18;;;;;;;9.18;2.90;;;17.30;99.90;;;;;;5052136;28;20025;-76
2021/11/27 02:36:49;;;;;;;10.25;2.60;;;17.10;99.90;;;;;;4700913;28;9999880;-73
2021/11/27 02:39:19;;;;;;;9.50;2.55;;;17.20;99.90;;;;;;5069135;28;20024;-68
2021/11/27 02:41:52;;;;;;;10.43;2.35;;;17.30;99.90;;;;;;5067848;28;20348;-69
2021/11/27 02:44:23;;;;;;;8.68;2.10;;;17.40;99.90;;;;;;5064119;28;21226;-72
2021/11/27 02:46:51;;;;;;;8.20;2.35;;;17.50;99.90;;;;;;5066293;28;20082;-72
2021/11/27 02:49:18;;;;;;;7.97;2.17;;;17.60;99.90;;;;;;5066166;28;20060;-69
2021/11/27 02:51:47;;;;;;;10.77;2.63;;;17.90;99.90;;;;;;5064916;28;20029;-73
2021/11/27 02:54:14;;;;;;;9.10;2.83;;;18.10;99.90;;;;;;5065550;28;20020;-74
2021/11/27 02:56:42;;;;;;;8.27;2.72;;;18.20;99.90;;;;;;5065573;28;20434;-66
2021/11/27 02:59:20;;;;;;;7.18;2.10;;;18.00;99.90;;;;;;5065011;28;20039;-66
2021/11/27 03:01:50;;;;;;;8.55;2.13;;;18.00;99.90;;;;;;5064456;28;20020;-71
2021/11/27 03:04:17;;;;;;;9.25;1.88;;;18.10;99.90;;;;;;5065117;28;20023;-73
2021/11/27 03:06:46;;;;;;;8.40;2.20;;;18.20;99.90;;;;;;5062969;28;20063;-68
2021/11/27 03:09:18;;;;;;;11.55;2.38;;;18.40;99.90;;;;;;5063773;28;20852;-65
2021/11/27 03:11:50;;;;;;;11.60;2.95;;;18.40;99.90;;;;;;5064275;28;20340;-66
2021/11/27 03:14:17;;;;;;;;;;;18.50;99.90;;;;;;5066031;28;20027;-70
2021/11/27 03:16:45;;;;;;;8.93;2.97;;;18.70;99.90;;;;;;5064886;28;20561;-67
2021/11/27 03:19:12;;;;;;;8.95;2.13;;;18.70;99.90;;;;;;5064910;28;20051;-65
2021/11/27 03:21:39;;;;;;;12.77;3.60;;;18.80;99.90;;;;;;5063353;28;20033;-68
2021/11/27 03:24:07;;;;;;;8.48;2.75;;;19.00;99.90;;;;;;5063245;28;20538;-67
2021/11/27 03:26:34;;;;;;;9.85;2.47;;;19.40;99.90;;;;;;5069079;28;20071;-68
2021/11/27 03:29:01;;;;;;;7.47;2.22;;;19.60;99.90;;;;;;5066806;28;20020;-65
2021/11/27 03:31:29;;;;;;;10.27;3.35;;;19.80;99.90;;;;;;5050454;28;20165;-66
2021/11/27 03:33:56;;;;;;;10.25;2.25;;;19.60;99.90;;;;;;5067678;28;20359;-68
2021/11/27 03:36:23;;;;;;;9.65;2.40;;;19.00;99.90;;;;;;5067626;28;20685;-68
2021/11/27 03:38:51;;;;;;;11.20;2.67;;;18.80;99.90;;;;;;5067686;28;20123;-68
2021/11/27 03:41:18;;;;;;;9.68;2.50;;;18.70;99.90;;;;;;5068277;28;20013;-69
2021/11/27 03:43:48;;;;;;;8.75;2.38;;;18.40;99.90;;;;;;5067697;28;20071;-69
2021/11/27 03:46:15;;;;;;;10.05;2.53;;;18.50;99.90;;;;;;5067244;28;20119;-68
2021/11/27 03:48:45;;;;;;;7.97;2.55;;;18.50;99.90;;;;;;5066354;28;21067;-68
2021/11/27 03:51:19;;;;;;;12.20;2.83;;;18.40;99.90;;;;;;5065646;28;20029;-68
2021/11/27 03:53:48;;;;;;;11.77;3.22;;;18.30;99.90;;;;;;5066063;28;20394;-69
2021/11/27 03:56:19;;;;;;;16.40;3.30;;;18.50;99.90;;;;;;5065023;28;20031;-64
2021/11/27 03:58:47;;;;;;;11.88;3.58;;;18.80;99.90;;;;;;5066684;28;20029;-68
2021/11/27 04:01:17;;;;;;;13.55;3.47;;;19.00;99.90;;;;;;5063988;28;20061;-64
2021/11/27 04:03:46;;;;;;;18.13;4.93;;;18.70;99.90;;;;;;5066480;28;20051;-64
2021/11/27 04:06:14;;;;;;;16.08;3.83;;;18.70;99.90;;;;;;5066573;28;20032;-68
2021/11/27 04:08:42;;;;;;;14.82;3.67;;;18.70;99.90;;;;;;5066341;28;20683;-64
2021/11/27 04:11:09;;;;;;;18.80;4.30;;;18.90;99.90;;;;;;5065980;28;20031;-66
2021/11/27 04:13:36;;;;;;;14.98;3.58;;;19.00;99.90;;;;;;5066387;28;20032;-69
2021/11/27 04:16:04;;;;;;;16.10;3.03;;;19.00;99.90;;;;;;5065921;28;20029;-65
2021/11/27 04:18:31;;;;;;;12.77;3.35;;;19.00;99.90;;;;;;5065092;28;20023;-69
2021/11/27 04:20:59;;;;;;;17.02;4.13;;;19.00;99.90;;;;;;5065756;28;20491;-68
2021/11/27 04:23:26;;;;;;;11.43;3.70;;;18.90;99.90;;;;;;5065744;28;20051;-68
2021/11/27 04:25:54;;;;;;;15.40;3.40;;;18.90;99.90;;;;;;5065854;28;20035;-64
2021/11/27 04:28:21;;;;;;;14.27;4.45;;;18.80;99.90;;;;;;5065932;28;20057;-65
2021/11/27 04:30:48;;;;;;;14.30;3.95;;;18.70;99.90;;;;;;5064618;28;20032;-66
2021/11/27 04:33:16;;;;;;;16.42;3.80;;;18.60;99.90;;;;;;5065638;28;20039;-65
2021/11/27 04:35:43;;;;;;;11.93;3.25;;;18.50;99.90;;;;;;5064610;28;20048;-68
2021/11/27 04:38:10;;;;;;;11.48;3.33;;;18.40;99.90;;;;;;5063421;28;20028;-65
2021/11/27 04:40:38;;;;;;;19.27;4.22;;;18.30;99.90;;;;;;5065772;28;20021;-68
2021/11/27 04:43:05;;;;;;;22.95;3.55;;;18.30;99.90;;;;;;5066496;28;20017;-64
2021/11/27 04:45:33;;;;;;;13.05;2.72;;;18.40;99.90;;;;;;5065547;28;20039;-69
2021/11/27 04:48:01;;;;;;;10.05;3.40;;;18.50;99.90;;;;;;5065623;28;20025;-65
2021/11/27 04:50:30;;;;;;;9.15;2.47;;;18.50;99.90;;;;;;5066050;28;20043;-65
2021/11/27 04:52:58;;;;;;;8.63;2.60;;;18.50;99.90;;;;;;5047684;28;20028;-68
2021/11/27 04:55:25;;;;;;;15.80;3.50;;;18.60;99.90;;;;;;5065828;28;20035;-64
2021/11/27 04:57:53;;;;;;;10.75;2.72;;;18.70;99.90;;;;;;5065376;28;20501;-69
2021/11/27 05:00:27;;;;;;;11.23;3.25;;;19.00;99.90;;;;;;5065253;28;20150;-64
2021/11/27 05:02:54;;;;;;;9.43;2.70;;;19.20;99.90;;;;;;5065633;28;20412;-71
2021/11/27 05:05:23;;;;;;;9.88;2.63;;;19.10;99.90;;;;;;5062943;28;20070;-67
2021/11/27 05:07:52;;;;;;;14.85;3.20;;;19.00;99.90;;;;;;5046474;28;20046;-70
2021/11/27 05:10:20;;;;;;;8.98;2.72;;;18.80;99.90;;;;;;5065197;28;20455;-68
2021/11/27 05:12:47;;;;;;;9.02;3.42;;;18.50;99.90;;;;;;5062788;28;20051;-65
2021/11/27 05:15:14;;;;;;;9.77;3.10;;;18.20;99.90;;;;;;5061529;28;20043;-64
2021/11/27 05:17:42;;;;;;;11.25;3.15;;;17.60;99.90;;;;;;5061841;28;20033;-65
2021/11/27 05:20:10;;;;;;;14.52;2.80;;;17.00;99.90;;;;;;5064916;28;20036;-69
2021/11/27 05:22:37;;;;;;;14.02;3.25;;;16.70;99.90;;;;;;5065600;28;20030;-64
2021/11/27 05:25:06;;;;;;;11.48;2.72;;;16.70;99.90;;;;;;5065816;28;20024;-71
2021/11/27 05:27:35;;;;;;;12.48;3.15;;;16.90;99.90;;;;;;5064428;28;20087;-71
2021/11/27 05:30:09;;;;;;;13.95;2.85;;;17.20;99.90;;;;;;5065524;28;20044;-70
2021/11/27 05:35:06;;;;;;;10.05;2.40;;;17.50;99.90;;;;;;5063127;28;20025;-70
2021/11/27 05:37:34;;;;;;;13.15;2.88;;;17.50;99.90;;;;;;5061503;28;20044;-66
2021/11/27 05:40:04;;;;;;;10.95;2.63;;;17.50;99.90;;;;;;5059967;28;20028;-68
2021/11/27 05:42:31;;;;;;;10.00;2.85;;;17.60;99.90;;;;;;5063850;28;20495;-71
2021/11/27 05:44:58;;;;;;;14.05;3.22;;;17.80;99.90;;;;;;5064427;28;20024;-67
2021/11/27 05:47:26;;;;;;;12.63;2.90;;;17.90;99.90;;;;;;5063085;28;20032;-66
2021/11/27 05:49:53;;;;;;;11.02;2.60;;;17.80;99.90;;;;;;5064399;28;20111;-70
2021/11/27 05:52:22;;;;;;;12.05;2.92;;;17.70;99.90;;;;;;5063226;28;20152;-69
2021/11/27 05:54:49;;;;;;;15.73;2.97;;;17.80;99.90;;;;;;5064593;28;20051;-65
2021/11/27 05:57:16;;;;;;;12.93;3.40;;;17.80;99.90;;;;;;5063807;28;20074;-66
2021/11/27 05:59:45;;;;;;;13.77;3.38;;;17.80;99.90;;;;;;5064141;28;20554;-66
2021/11/27 06:02:12;;;;;;;13.68;2.88;;;17.70;99.90;;;;;;5063237;28;20033;-70
2021/11/27 06:04:39;;;;;;;15.65;3.80;;;17.80;99.90;;;;;;5062233;28;20107;-66
2021/11/27 06:07:06;;;;;;;17.95;3.85;;;17.90;99.90;;;;;;5062598;28;20162;-68
2021/11/27 06:09:41;;;;;;;19.96;3.93;;;18.00;99.90;;;;;;4979768;28;10001020;-69
2021/11/27 06:12:08;;;;;;;20.27;4.15;;;18.10;99.90;;;;;;5064010;28;20255;-72
2021/11/27 06:14:37;;;;;;;23.30;5.63;;;18.10;99.90;;;;;;5064628;28;20028;-66
2021/11/27 06:17:05;;;;;;;16.90;3.17;;;18.10;99.90;;;;;;5062365;28;20065;-67
2021/11/27 06:19:32;;;;;;;19.88;4.95;;;18.00;99.90;;;;;;5061319;28;20017;-66
2021/11/27 06:21:59;;;;;;;17.13;4.47;;;17.90;99.90;;;;;;5064931;28;20021;-67
2021/11/27 06:24:26;;;;;;;12.73;4.70;;;17.80;99.90;;;;;;5061425;28;20028;-66
2021/11/27 06:26:54;;;;;;;21.55;5.03;;;17.90;99.90;;;;;;5062594;28;20045;-66
2021/11/27 06:29:23;;;;;;;19.25;3.95;;;17.70;99.90;;;;;;4712720;28;10000034;-69
2021/11/27 06:31:50;;;;;;;17.63;4.25;;;17.60;99.90;;;;;;5066865;28;20036;-70
2021/11/27 06:34:17;;;;;;;20.80;5.22;;;17.50;99.90;;;;;;5066100;28;20103;-70
2021/11/27 06:36:45;;;;;;;18.33;3.92;;;17.40;99.90;;;;;;5068124;28;20123;-66
2021/11/27 06:39:12;;;;;;;20.30;4.88;;;17.20;99.90;;;;;;5067927;28;20103;-65
2021/11/27 06:41:39;;;;;;;20.05;4.22;;;17.10;99.90;;;;;;5065336;28;20028;-64
2021/11/27 06:44:06;;;;;;;15.15;4.45;;;17.00;99.90;;;;;;5067589;28;20035;-71
2021/11/27 06:46:34;;;;;;;26.65;4.80;;;17.00;99.90;;;;;;5068260;28;20107;-71
2021/11/27 06:49:01;;;;;;;16.20;4.53;;;16.90;99.90;;;;;;5063523;28;20150;-71
2021/11/27 06:51:28;;;;;;;13.13;4.30;;;16.80;99.90;;;;;;5046326;28;20020;-69
2021/11/27 06:53:55;;;;;;;19.35;5.35;;;16.60;99.90;;;;;;5063264;28;20039;-69
2021/11/27 06:56:22;;;;;;;19.63;4.22;;;16.40;99.90;;;;;;5061466;28;20016;-69
2021/11/27 06:58:50;;;;;;;16.58;4.25;;;16.30;99.90;;;;;;5045018;28;20487;-70
2021/11/27 07:01:17;;;;;;;23.83;5.47;;;16.30;99.90;;;;;;5062687;28;20376;-70
2021/11/27 07:03:44;;;;;;;21.65;5.22;;;16.20;99.90;;;;;;5061982;28;20379;-73
2021/11/27 07:06:12;;;;;;;18.33;4.45;;;16.00;99.90;;;;;;5063737;28;20062;-68
2021/11/27 07:08:39;;;;;;;24.33;5.20;;;15.90;99.90;;;;;;5061867;28;20162;-72
2021/11/27 07:11:06;;;;;;;17.40;5.00;;;15.90;99.90;;;;;;5061730;28;20028;-72
2021/11/27 07:13:34;;;;;;;18.80;4.35;;;15.70;99.90;;;;;;5062697;28;20093;-70
2021/11/27 07:16:01;;;;;;;15.73;3.90;;;15.50;99.90;;;;;;5063432;28;20059;-72
2021/11/27 07:18:28;;;;;;;15.82;3.90;;;15.50;99.90;;;;;;5059788;28;20021;-70
2021/11/27 07:20:56;;;;;;;17.00;4.22;;;15.50;99.90;;;;;;5043307;28;20029;-71
2021/11/27 07:23:23;;;;;;;20.20;4.93;;;15.60;99.90;;;;;;5061793;28;20051;-69
2021/11/27 07:25:50;;;;;;;12.38;3.85;;;15.80;99.90;;;;;;5064098;28;20491;-70
2021/11/27 07:28:17;;;;;;;27.15;14.88;;;15.80;99.90;;;;;;5064740;28;20103;-69
2021/11/27 07:30:45;;;;;;;12.35;4.28;;;15.80;99.90;;;;;;5063743;28;20023;-69
2021/11/27 07:33:12;;;;;;;15.15;4.22;;;15.90;99.90;;;;;;5044519;28;20047;-71
2021/11/27 07:35:39;;;;;;;13.80;3.47;;;15.90;99.90;;;;;;5059958;28;20033;-71
2021/11/27 07:38:06;;;;;;;12.18;2.92;;;16.00;99.90;;;;;;5061681;28;20032;-68
2021/11/27 07:40:33;;;;;;;15.07;4.82;;;16.00;99.90;;;;;;5062533;28;20024;-67
2021/11/27 07:43:01;;;;;;;11.15;3.15;;;16.20;99.90;;;;;;5065385;28;20025;-70
2021/11/27 07:45:30;;;;;;;9.98;3.20;;;16.20;99.90;;;;;;5065923;28;20017;-67
2021/11/27 07:47:57;;;;;;;12.80;3.92;;;16.20;99.90;;;;;;5059591;28;20032;-70
2021/11/27 07:50:24;;;;;;;14.07;3.20;;;16.20;99.90;;;;;;5060290;28;20098;-71
2021/11/27 07:52:52;;;;;;;9.20;3.40;;;16.20;99.90;;;;;;5061690;28;20560;-73
2021/11/27 07:55:19;;;;;;;13.35;3.53;;;16.10;99.90;;;;;;5044399;28;20478;-72
2021/11/27 07:57:46;;;;;;;15.32;3.20;;;16.20;99.90;;;;;;5063004;28;20027;-74
2021/11/27 08:00:14;;;;;;;13.93;3.13;;;16.10;99.90;;;;;;5060682;28;20119;-70
2021/11/27 08:02:41;;;;;;;14.23;3.05;;;16.10;99.90;;;;;;5063932;28;20037;-73
2021/11/27 08:05:08;;;;;;;15.48;3.78;;;16.00;99.90;;;;;;5064770;28;20032;-70
2021/11/27 08:07:36;;;;;;;16.15;3.97;;;16.00;99.90;;;;;;5065179;28;20060;-74
2021/11/27 08:10:11;;;;;;;18.70;3.65;;;16.00;99.90;;;;;;5064202;28;20028;-69
2021/11/27 08:12:38;;;;;;;11.55;3.10;;;16.00;99.90;;;;;;5068540;28;20486;-73
2021/11/27 08:15:07;;;;;;;13.32;3.42;;;16.00;99.90;;;;;;5067584;28;20078;-71
2021/11/27 08:17:39;;;;;;;17.63;3.88;;;16.10;99.90;;;;;;5067394;28;20032;-69
2021/11/27 08:20:08;;;;;;;8.70;2.85;;;16.10;99.90;;;;;;5067376;28;20457;-69
2021/11/27 08:22:36;;;;;;;18.98;3.75;;;16.10;99.90;;;;;;5068565;28;20033;-70
2021/11/27 08:25:04;;;;;;;18.85;3.65;;;16.10;99.90;;;;;;5066326;28;20409;-69
2021/11/27 08:27:31;;;;;;;12.75;4.13;;;16.20;99.90;;;;;;5068102;28;20135;-71
2021/11/27 08:29:59;;;;;;;16.90;4.03;;;16.20;99.90;;;;;;5066167;28;20463;-70
2021/11/27 08:32:26;;;;;;;17.23;3.72;;;16.10;99.90;;;;;;5066635;28;20094;-68
2021/11/27 08:34:53;;;;;;;13.68;3.78;;;16.10;99.90;;;;;;4710895;28;9999783;-68
2021/11/27 08:37:20;;;;;;;16.15;3.75;;;16.10;99.90;;;;;;5064739;28;20021;-67
2021/11/27 08:39:47;;;;;;;14.13;3.35;;;16.00;99.90;;;;;;5065983;28;20068;-70
2021/11/27 08:42:16;;;;;;;12.75;3.17;;;16.00;99.90;;;;;;5065752;28;20039;-67
2021/11/27 08:44:43;;;;;;;18.08;3.30;;;16.00;99.90;;;;;;5065433;28;20210;-72
2021/11/27 08:47:10;;;;;;;26.40;4.13;;;16.00;99.90;;;;;;5066755;28;20032;-68
2021/11/27 08:49:38;;;;;;;12.70;3.95;;;16.00;99.90;;;;;;5066103;28;20028;-67
2021/11/27 08:52:06;;;;;;;14.85;3.10;;;15.90;99.90;;;;;;5065666;28;20071;-72
2021/11/27 08:54:33;;;;;;;18.40;3.88;;;15.90;99.90;;;;;;5066116;28;20437;-69
2021/11/27 08:57:01;;;;;;;17.17;3.80;;;15.90;99.90;;;;;;5061027;28;20028;-68
2021/11/27 08:59:29;;;;;;;12.98;3.35;;;15.90;99.90;;;;;;5047805;28;20021;-69
2021/11/27 09:01:57;;;;;;;16.10;3.42;;;15.90;99.90;;;;;;5066781;28;20021;-71
2021/11/27 09:04:25;;;;;;;21.35;4.15;;;15.90;99.90;;;;;;5065985;28;20028;-68
2021/11/27 09:06:52;;;;;;;12.68;3.80;;;15.90;99.90;;;;;;5062156;28;20024;-70
2021/11/27 09:09:20;;;;;;;17.52;3.75;;;15.90;99.90;;;;;;5065011;28;20029;-68
2021/11/27 09:11:49;;;;;;;18.83;4.90;;;15.90;99.90;;;;;;5066636;28;20020;-69
2021/11/27 09:14:18;;;;;;;16.42;3.97;;;15.90;99.90;;;;;;5065919;28;20020;-68
2021/11/27 09:16:48;;;;;;;18.25;4.07;;;15.90;99.90;;;;;;5066053;28;20100;-69
2021/11/27 09:19:15;;;;;;;18.45;3.60;;;15.80;99.90;;;;;;5063877;28;20025;-70
2021/11/27 09:21:43;;;;;;;13.13;3.53;;;15.80;99.90;;;;;;5064046;28;20032;-69
2021/11/27 09:24:10;;;;;;;15.98;4.15;;;15.80;99.90;;;;;;5064546;28;20237;-72
2021/11/27 09:26:38;;;;;;;18.88;4.40;;;15.70;99.90;;;;;;5065740;28;20797;-71
2021/11/27 09:29:10;;;;;;;15.85;4.90;;;15.80;99.90;;;;;;5047958;28;20025;-67
2021/11/27 09:31:41;;;;;;;17.00;4.15;;;15.80;99.90;;;;;;5065691;28;20013;-73
2021/11/27 09:34:10;;;;;;;19.23;4.45;;;15.70;99.90;;;;;;5065341;28;20028;-71
2021/11/27 09:36:38;;;;;;;17.40;4.68;;;15.80;99.90;;;;;;5065829;28;20021;-69
2021/11/27 09:39:09;;;;;;;12.20;3.65;;;15.80;99.90;;;;;;5066356;28;20048;-71
2021/11/27 09:41:40;;;;;;;19.83;4.47;;;15.70;99.90;;;;;;5065446;28;20020;-71
2021/11/27 09:44:08;;;;;;;21.90;5.10;;;15.80;99.90;;;;;;5041363;28;20731;-69
2021/11/27 09:46:39;;;;;;;21.13;4.68;;;15.80;99.90;;;;;;5055784;28;20493;-71
2021/11/27 09:49:09;;;;;;;16.27;4.00;;;15.80;99.90;;;;;;5064575;28;20028;-68
2021/11/27 09:51:38;;;;;;;15.70;3.50;;;15.80;99.90;;;;;;5064663;28;20083;-69
2021/11/27 09:54:11;;;;;;;17.33;4.78;;;15.70;99.90;;;;;;5057851;28;20029;-67
2021/11/27 09:56:39;;;;;;;18.83;4.30;;;15.70;99.90;;;;;;5064610;28;20021;-69
2021/11/27 09:59:07;;;;;;;17.25;5.22;;;15.80;99.90;;;;;;5046567;28;20052;-67
2021/11/27 10:01:36;;;;;;;19.55;5.38;;;15.80;99.90;;;;;;5061385;28;20025;-71
2021/11/27 10:04:07;;;;;;;18.10;4.22;;;15.90;99.90;;;;;;5058413;28;20114;-70
2021/11/27 10:06:43;;;;;;;17.98;4.85;;;15.90;99.90;;;;;;5060489;28;20025;-70
2021/11/27 10:09:15;;;;;;;12.80;3.75;;;15.70;99.90;;;;;;5064343;28;20746;-72
2021/11/27 10:11:44;;;;;;;16.10;4.30;;;15.60;99.90;;;;;;5063739;28;20452;-73
2021/11/27 10:14:12;;;;;;;18.77;5.05;;;15.50;99.90;;;;;;5046772;28;20039;-67
2021/11/27 10:17:00;;;;;;;23.88;5.03;;;15.50;99.90;;;;;;5046273;28;20024;-68
2021/11/27 10:19:46;;;;;;;20.30;4.55;;;15.30;99.90;;;;;;5063918;28;20040;-70
2021/11/27 10:22:38;;;;;;;19.65;4.05;;;15.30;99.90;;;;;;5045021;28;20448;-70
2021/11/27 10:25:25;;;;;;;17.23;4.25;;;15.40;99.90;;;;;;5057742;28;20529;-69
2021/11/27 10:27:53;;;;;;;18.70;4.72;;;15.30;99.90;;;;;;5118962;22;20075;-68
2021/11/27 10:30:21;;;;;;;17.58;4.95;;;15.30;99.90;;;;;;5066478;28;20029;-66
2021/11/27 10:32:50;;;;;;;20.05;5.07;;;15.40;99.90;;;;;;5074256;28;20131;-68
2021/11/27 10:35:20;;;;;;;59.00;35.08;;;15.40;99.90;;;;;;5058506;28;20025;-69
2021/11/27 10:37:55;;;;;;;20.13;4.30;;;15.40;99.90;;;;;;5073113;28;20496;-70
2021/11/27 10:40:25;;;;;;;24.00;6.32;;;15.40;99.90;;;;;;5068837;28;20083;-70
2021/11/27 10:42:58;;;;;;;20.08;3.92;;;15.40;99.90;;;;;;5065283;28;20085;-67
2021/11/27 10:45:31;;;;;;;16.27;3.78;;;15.40;99.90;;;;;;5071099;28;20023;-68
2021/11/27 10:48:23;;;;;;;17.75;4.55;;;15.50;99.90;;;;;;5070838;28;20363;-67
2021/11/27 10:50:58;;;;;;;17.10;4.18;;;15.50;99.90;;;;;;5069903;28;20033;-67
2021/11/27 10:53:31;;;;;;;15.32;3.60;;;15.50;99.90;;;;;;5071598;28;20025;-69
2021/11/27 10:56:09;;;;;;;;;;;15.50;99.90;;;;;;5076555;28;20485;-70
2021/11/27 10:59:03;;;;;;;15.85;4.57;;;15.40;99.90;;;;;;5070675;28;19915;-68
2021/11/27 11:01:55;;;;;;;13.07;3.63;;;15.40;99.90;;;;;;5067128;28;20849;-69
2021/11/27 11:04:22;;;;;;;21.25;4.43;;;15.30;99.90;;;;;;5059420;28;20036;-69
2021/11/27 11:06:49;;;;;;;13.38;3.92;;;15.20;99.90;;;;;;5073243;28;20043;-68
2021/11/27 11:09:16;;;;;;;17.10;4.53;;;15.20;99.90;;;;;;5073698;28;20031;-70
2021/11/27 11:11:46;;;;;;;16.00;4.43;;;15.10;99.90;;;;;;5075809;28;20111;-70
2021/11/27 11:14:25;;;;;;;18.17;4.80;;;15.10;99.90;;;;;;5070903;28;20033;-68
2021/11/27 11:16:57;;;;;;;25.63;4.93;;;15.10;99.90;;;;;;4724757;28;9999936;-68
2021/11/27 11:19:25;;;;;;;17.95;4.47;;;15.00;99.90;;;;;;4708571;28;9999813;-67
2021/11/27 11:22:17;;;;;;;14.60;3.72;;;14.90;99.90;;;;;;5078353;28;20032;-70
2021/11/27 11:24:46;;;;;;;17.13;4.28;;;14.70;99.90;;;;;;5071816;28;20032;-70
2021/11/27 11:27:28;;;;;;;16.13;3.80;;;14.70;99.90;;;;;;5070697;28;20113;-69
2021/11/27 11:29:55;;;;;;;18.65;4.47;;;14.60;99.90;;;;;;5077070;28;20615;-68
2021/11/27 11:32:27;;;;;;;19.30;4.10;;;14.60;99.90;;;;;;5070978;28;20032;-69
2021/11/27 11:34:56;;;;;;;15.65;4.72;;;14.60;99.90;;;;;;5069237;28;20020;-69
2021/11/27 11:37:24;;;;;;;15.13;3.75;;;14.60;99.90;;;;;;5072861;28;20099;-67
2021/11/27 11:39:53;;;;;;;11.63;3.10;;;14.60;99.90;;;;;;5068230;28;20028;-72
2021/11/27 11:42:26;;;;;;;18.65;4.07;;;14.70;99.90;;;;;;5071809;28;20799;-70
2021/11/27 11:44:54;;;;;;;9.82;3.05;;;14.80;99.90;;;;;;5073155;28;20135;-70
2021/11/27 11:47:23;;;;;;;16.17;3.58;;;14.90;99.90;;;;;;5077429;28;20055;-69
2021/11/27 11:49:55;;;;;;;10.93;3.40;;;14.90;99.90;;;;;;5075294;28;20153;-69
2021/11/27 11:52:53;;;;;;;13.93;3.45;;;14.90;99.90;;;;;;5076044;28;20059;-69
2021/11/27 11:55:20;;;;;;;11.75;3.20;;;15.00;99.90;;;;;;5079418;28;20386;-67
2021/11/27 11:57:56;;;;;;;15.48;4.25;;;14.90;99.90;;;;;;5072538;28;20020;-71
2021/11/27 12:00:38;;;;;;;13.15;3.63;;;14.90;99.90;;;;;;5078242;28;20523;-67
2021/11/27 12:03:13;;;;;;;13.05;2.97;;;15.00;99.90;;;;;;5075233;28;20364;-71
2021/11/27 12:06:04;;;;;;;12.50;3.13;;;15.00;99.90;;;;;;5076535;28;20055;-71
2021/11/27 12:08:49;;;;;;;12.65;3.28;;;15.00;99.90;;;;;;4723432;28;10000448;-70
2021/11/27 12:11:53;;;;;;;18.25;3.55;;;15.00;99.90;;;;;;5075105;28;20397;-70
2021/11/27 12:14:23;;;;;;;15.70;3.78;;;15.10;99.90;;;;;;5076431;28;20440;-69
2021/11/27 12:17:13;;;;;;;20.08;4.05;;;15.00;99.90;;;;;;5070508;28;20066;-69
2021/11/27 12:19:45;;;;;;;18.05;4.03;;;15.00;99.90;;;;;;5075993;28;20095;-68
2021/11/27 12:22:34;;;;;;;14.02;3.90;;;14.90;99.90;;;;;;5079088;28;20032;-69
2021/11/27 12:25:14;;;;;;;21.88;5.43;;;14.90;99.90;;;;;;5074584;28;20033;-71
2021/11/27 12:28:02;;;;;;;12.95;3.22;;;14.90;99.90;;;;;;5073809;28;20055;-71
2021/11/27 12:30:42;;;;;;;16.00;3.38;;;14.90;99.90;;;;;;5074698;28;20111;-67
2021/11/27 12:33:57;;;;;;;17.88;4.13;;;14.80;99.90;;;;;;5055978;28;20047;-68
2021/11/27 12:36:36;;;;;;;13.43;3.47;;;14.80;99.90;;;;;;5077106;28;20090;-70
2021/11/27 12:39:21;;;;;;;14.50;3.45;;;14.80;99.90;;;;;;5078510;28;20024;-70
2021/11/27 12:42:11;;;;;;;13.68;3.25;;;14.70;99.90;;;;;;5075989;28;20028;-68
2021/11/27 12:44:45;;;;;;;17.10;3.50;;;14.70;99.90;;;;;;5061211;28;20028;-70
2021/11/27 12:47:26;;;;;;;19.65;4.70;;;14.70;99.90;;;;;;5078945;28;20035;-70
2021/11/27 12:49:56;;;;;;;15.93;3.80;;;14.70;99.90;;;;;;5080596;28;20032;-70
2021/11/27 12:52:51;;;;;;;18.13;3.58;;;14.60;99.90;;;;;;5077902;28;20077;-69
2021/11/27 12:55:19;;;;;;;14.20;3.70;;;14.70;99.90;;;;;;5075540;28;20028;-70